Time;durP1;ratioP1;P1;durP2;ratioP2;P2;SDS_P1;SDS_P2;PMS_P1;PMS_P2;Temp;Humidity;BMP_temperature;BMP_pressure;BME280_temperature;BME280_humidity;BME280_pressure;Samples;Min_cycle;Max_cycle;Signal;HPM_P1;HPM_P2
2023/07/29 00:04:06;;;;;;;1.80;1.70;;;;;;;19.84;90.13;98605.44;7250522;40;20412;31
2023/07/29 00:14:46;;;;;;;1.77;1.60;;;;;;;19.84;91.50;98613.63;7191255;40;20509;31
2023/07/29 00:25:26;;;;;;;4.30;1.80;;;;;;;19.90;89.77;98607.22;7285546;39;21164;31
2023/07/29 00:31:02;;;;;;;2.85;1.80;;;;;;;19.89;90.48;98608.28;7274571;39;20249;31
2023/07/29 00:36:22;;;;;;;6.00;2.10;;;;;;;19.86;90.44;98606.87;7211258;40;20462;31
2023/07/29 00:41:57;;;;;;;2.43;1.60;;;;;;;19.84;90.95;98589.00;7191363;40;20246;31
2023/07/29 00:47:33;;;;;;;2.73;1.90;;;;;;;19.86;90.77;98589.63;7134011;40;20346;31
2023/07/29 00:53:05;;;;;;;7.20;2.50;;;;;;;19.85;90.47;98585.22;7233498;40;20355;31
2023/07/29 00:58:25;;;;;;;2.47;2.20;;;;;;;19.82;90.80;98577.50;7203008;40;20263;31
2023/07/29 01:04:01;;;;;;;2.50;2.30;;;;;;;19.81;90.34;98571.19;7217811;40;20265;31
2023/07/29 01:09:36;;;;;;;5.47;2.30;;;;;;;19.79;90.37;98579.62;7175738;40;20262;31
2023/07/29 01:15:11;;;;;;;2.87;2.40;;;;;;;19.80;91.48;98566.78;7190650;40;20250;31
2023/07/29 01:20:48;;;;;;;3.60;2.60;;;;;;;19.65;91.84;98558.28;7223367;40;20426;31
2023/07/29 01:26:24;;;;;;;2.83;2.23;;;;;;;19.69;91.97;98551.25;7193641;40;20258;31
2023/07/29 01:31:59;;;;;;;3.15;2.10;;;;;;;19.66;91.37;98549.81;7163328;40;20267;31
2023/07/29 01:37:34;;;;;;;2.13;1.93;;;;;;;19.73;91.97;98550.53;7170312;40;20250;31
2023/07/29 01:43:10;;;;;;;2.40;2.10;;;;;;;19.71;91.27;98544.47;7182346;40;20281;31
2023/07/29 01:48:31;;;;;;;4.50;2.10;;;;;;;19.79;91.13;98548.72;7165204;40;20270;31
2023/07/29 01:53:51;;;;;;;3.15;2.10;;;;;;;19.76;91.11;98549.19;7212844;40;20357;31
2023/07/29 01:59:27;;;;;;;2.47;1.83;;;;;;;19.75;91.81;98555.75;7248878;40;20315;31
2023/07/29 02:04:59;;;;;;;4.60;2.30;;;;;;;19.70;93.21;98553.72;7007898;40;20223;31
2023/07/29 02:10:19;;;;;;;4.15;1.95;;;;;;;19.70;92.97;98556.47;7177505;40;20328;31
2023/07/29 02:15:55;;;;;;;2.47;2.20;;;;;;;19.74;92.36;98556.84;7164164;40;20263;31
2023/07/29 02:21:16;;;;;;;3.87;2.37;;;;;;;19.77;93.54;98554.44;7193035;40;20344;31
2023/07/29 02:26:36;;;;;;;3.53;2.30;;;;;;;19.69;93.07;98543.88;7184955;40;20668;31
2023/07/29 02:37:15;;;;;;;2.20;2.00;;;;;;;19.69;94.65;98537.59;7261610;39;20256;31
2023/07/29 02:47:54;;;;;;;2.10;1.90;;;;;;;19.70;93.78;98525.56;7314543;39;20268;31
2023/07/29 02:53:30;;;;;;;3.30;2.10;;;;;;;19.69;93.42;98530.22;7274929;40;20269;31
2023/07/29 02:59:05;;;;;;;2.75;1.90;;;;;;;19.68;94.87;98514.03;7258781;39;20299;31
2023/07/29 03:09:45;;;;;;;3.10;1.80;;;;;;;19.82;94.06;98503.66;7202836;40;20292;31
2023/07/29 03:15:21;;;;;;;3.55;2.20;;;;;;;19.89;93.87;98496.97;7224622;40;20332;31
2023/07/29 03:20:56;;;;;;;3.95;2.10;;;;;;;19.89;94.00;98474.25;7221507;40;20359;31
2023/07/29 03:26:29;;;;;;;3.25;2.50;;;;;;;19.82;93.17;98471.66;7204370;40;20386;31
2023/07/29 03:32:04;;;;;;;2.40;2.05;;;;;;;19.76;92.96;98487.13;7173593;40;20353;31
2023/07/29 03:37:25;;;;;;;3.93;2.00;;;;;;;19.80;93.65;98482.00;7193441;40;20258;31
2023/07/29 03:43:00;;;;;;;2.10;1.90;;;;;;;19.71;93.34;98486.19;7243733;40;20351;31
2023/07/29 03:48:21;;;;;;;3.57;2.30;;;;;;;19.69;93.96;98478.25;7245393;40;20249;31
2023/07/29 03:53:38;;;;;;;2.43;1.93;;;;;;;19.78;93.46;98484.16;7248729;40;20273;31
2023/07/29 03:59:10;;;;;;;3.50;2.03;;;;;;;19.82;93.81;98498.19;7251676;40;20259;31
2023/07/29 04:04:31;;;;;;;2.90;2.27;;;;;;;19.81;94.68;98505.56;7150173;40;20353;31
2023/07/29 04:09:48;;;;;;;2.73;2.30;;;;;;;19.68;96.99;98516.78;7208141;40;20253;31
2023/07/29 04:15:21;;;;;;;4.30;2.60;;;;;;;19.63;96.89;98490.16;7206700;40;20269;31
2023/07/29 04:20:56;;;;;;;3.47;2.50;;;;;;;19.67;97.31;98493.22;7208779;40;20337;31
2023/07/29 04:26:17;;;;;;;4.73;2.60;;;;;;;19.72;97.29;98485.13;7227569;40;20324;31
2023/07/29 04:31:50;;;;;;;3.00;2.70;;;;;;;19.78;96.94;98490.47;7248495;40;20260;31
2023/07/29 04:37:25;;;;;;;4.55;2.65;;;;;;;19.80;97.35;98491.03;7195063;40;20247;31
2023/07/29 04:43:00;;;;;;;5.70;2.85;;;;;;;19.82;97.08;98495.44;7202332;40;20272;31
2023/07/29 04:48:34;;;;;;;3.80;2.55;;;;;;;19.88;97.45;98497.22;7153291;40;20361;31
2023/07/29 04:59:12;;;;;;;3.80;2.90;;;;;;;19.95;96.50;98511.56;7184174;40;20297;31
2023/07/29 05:09:49;;;;;;;4.50;3.05;;;;;;;19.92;97.45;98507.41;7258646;39;20289;31
2023/07/29 05:15:23;;;;;;;4.60;2.83;;;;;;;19.88;98.16;98517.16;7176834;40;20261;31
2023/07/29 05:20:58;;;;;;;4.70;3.35;;;;;;;19.86;99.21;98524.81;7207384;40;20323;31
2023/07/29 05:26:34;;;;;;;4.70;3.53;;;;;;;19.86;98.99;98521.25;7215124;40;20269;31
2023/07/29 05:31:54;;;;;;;5.00;3.93;;;;;;;19.89;99.23;98520.75;7173343;40;20269;31
2023/07/29 05:37:11;;;;;;;4.43;3.23;;;;;;;19.90;100.00;98533.34;7194701;40;20242;31
2023/07/29 05:42:47;;;;;;;3.90;3.10;;;;;;;19.92;98.81;98534.75;7238136;40;20260;31
2023/07/29 05:48:22;;;;;;;5.47;2.90;;;;;;;20.04;99.38;98523.78;7261924;40;20245;31
2023/07/29 05:53:57;;;;;;;4.00;3.10;;;;;;;20.10;98.68;98522.81;7272128;39;20448;31
2023/07/29 05:59:29;;;;;;;3.60;3.00;;;;;;;20.15;99.49;98529.22;7264469;40;20261;31
2023/07/29 06:05:00;;;;;;;2.73;2.47;;;;;;;20.20;98.85;98515.63;7232558;40;20268;31
2023/07/29 06:10:32;;;;;;;4.20;2.40;;;;;;;20.20;100.00;98537.53;7171330;40;20285;31
2023/07/29 06:16:08;;;;;;;5.00;2.13;;;;;;;20.24;99.21;98532.38;7163040;40;20255;31
2023/07/29 06:21:43;;;;;;;2.57;1.83;;;;;;;20.32;99.69;98532.00;7203755;40;20308;31
2023/07/29 06:27:00;;;;;;;1.70;1.60;;;;;;;20.38;100.00;98535.69;7172414;40;20269;31
2023/07/29 06:32:33;;;;;;;1.70;1.60;;;;;;;20.39;99.07;98545.56;7196883;40;20414;31
2023/07/29 06:38:05;;;;;;;2.80;1.60;;;;;;;20.41;98.56;98544.22;7156960;40;20464;31
2023/07/29 06:43:40;;;;;;;4.37;2.10;;;;;;;20.46;98.45;98552.53;7155191;40;20274;31
2023/07/29 06:49:13;;;;;;;2.33;1.90;;;;;;;20.54;97.25;98543.91;7112975;40;20369;31
2023/07/29 06:54:48;;;;;;;3.00;1.80;;;;;;;20.60;97.15;98556.62;7147902;40;20259;31
2023/07/29 07:00:23;;;;;;;2.70;1.90;;;;;;;20.79;95.90;98548.19;7166169;40;20278;31
2023/07/29 07:05:56;;;;;;;3.37;2.05;;;;;;;21.03;96.65;98557.91;7176602;40;20232;31
2023/07/29 07:11:16;;;;;;;2.37;1.80;;;;;;;20.93;94.89;98555.03;7193549;40;20466;31
2023/07/29 07:16:39;;;;;;;2.55;1.87;;;;;;;20.88;95.68;98543.97;7181572;40;20278;31
2023/07/29 07:27:17;;;;;;;2.30;2.10;;;;;;;20.86;94.80;98543.38;7286306;39;20257;31
2023/07/29 07:32:34;;;;;;;1.80;1.67;;;;;;;20.93;94.22;98555.03;7269129;40;20262;31
2023/07/29 07:37:51;;;;;;;3.90;1.92;;;;;;;21.01;95.31;98571.88;7234687;40;20359;31
2023/07/29 07:43:22;;;;;;;2.72;1.90;;;;;;;21.08;94.36;98572.53;7213850;40;20245;31
2023/07/29 07:48:57;;;;;;;2.28;1.70;;;;;;;21.10;93.40;98586.81;7197666;40;21266;31
2023/07/29 07:59:35;;;;;;;3.10;1.85;;;;;;;21.20;93.60;98585.34;7233692;40;20355;31
2023/07/29 08:10:11;;;;;;;1.83;1.60;;;;;;;21.20;93.71;98557.91;7243593;40;20295;31
2023/07/29 08:15:48;;;;;;;1.95;1.75;;;;;;;21.38;91.91;98576.84;7212652;40;20269;31
2023/07/29 08:26:10;;;;;;;1.77;1.62;;;;;;;22.22;89.01;98586.53;7232615;40;20296;31
2023/07/29 08:36:45;;;;;;;7.40;4.45;;;;;;;22.45;87.92;98586.25;7257752;39;20280;31
2023/07/29 08:47:07;;;;;;;5.60;2.22;;;;;;;23.07;85.23;98585.78;7334096;39;20412;31
2023/07/29 08:52:44;;;;;;;3.25;2.10;;;;;;;23.20;83.09;98596.34;7253509;40;20276;31
2023/07/29 08:58:18;;;;;;;3.83;1.85;;;;;;;23.37;81.57;98585.19;7258573;40;20248;31
2023/07/29 09:03:50;;;;;;;3.10;1.77;;;;;;;23.36;81.40;98578.84;7054674;40;20234;31
2023/07/29 09:09:24;;;;;;;2.22;1.70;;;;;;;23.47;80.80;98584.47;7223713;40;20389;31
2023/07/29 09:14:59;;;;;;;4.90;1.90;;;;;;;23.47;79.79;98582.56;7195280;40;20258;31
2023/07/29 09:20:38;;;;;;;2.47;1.58;;;;;;;23.42;78.74;98571.47;7115113;40;20424;31
2023/07/29 09:26:17;;;;;;;4.35;1.95;;;;;;;23.55;78.31;98576.53;7166888;40;20283;31
2023/07/29 09:31:38;;;;;;;2.90;1.80;;;;;;;23.58;77.42;98577.91;7188748;40;20270;31
2023/07/29 09:37:12;;;;;;;2.05;1.55;;;;;;;24.04;76.39;98579.84;7233722;40;20261;31
2023/07/29 09:42:49;;;;;;;2.00;1.40;;;;;;;24.00;76.29;98573.19;7190079;40;20276;31
2023/07/29 09:48:38;;;;;;;2.80;1.85;;;;;;;23.58;76.65;98572.41;7128988;40;20274;31
2023/07/29 09:54:14;;;;;;;3.20;1.80;;;;;;;23.16;76.93;98613.63;7212491;40;20627;31
2023/07/29 09:59:50;;;;;;;1.80;1.65;;;;;;;23.39;77.02;98609.69;7227117;40;20290;31
2023/07/29 10:05:25;;;;;;;2.75;1.80;;;;;;;23.46;77.38;98588.31;7259234;40;20283;31
2023/07/29 10:10:58;;;;;;;2.92;1.62;;;;;;;23.85;75.54;98600.66;7254282;40;20252;31
2023/07/29 10:16:34;;;;;;;2.03;1.80;;;;;;;24.19;74.06;98596.44;7241275;40;20255;31
2023/07/29 10:22:09;;;;;;;3.80;1.70;;;;;;;24.26;71.60;98589.88;7243336;40;20255;31
2023/07/29 10:27:44;;;;;;;1.85;1.60;;;;;;;24.18;70.39;98594.78;7235768;40;20425;31
2023/07/29 10:33:20;;;;;;;2.55;1.70;;;;;;;23.90;71.20;98597.94;7255538;40;20327;31
2023/07/29 10:38:55;;;;;;;2.05;1.80;;;;;;;23.60;71.74;98595.84;7218990;40;20452;31
2023/07/29 10:45:04;;;;;;;2.00;1.60;;;;;;;23.32;74.58;98609.91;7226644;40;20337;31
2023/07/29 10:50:40;;;;;;;2.87;1.77;;;;;;;23.29;76.66;98619.53;7175137;40;20340;31
2023/07/29 10:56:12;;;;;;;2.74;1.96;;;;;;;23.28;75.76;98606.84;7172264;40;20277;31
2023/07/29 11:01:45;;;;;;;5.37;2.00;;;;;;;23.99;74.70;98618.38;7157015;40;21359;31
2023/07/29 11:07:36;;;;;;;2.20;1.75;;;;;;;24.37;74.98;98606.16;7152647;40;20270;31
2023/07/29 11:18:15;;;;;;;3.10;1.80;;;;;;;24.34;72.44;98605.87;7231362;40;21283;31
2023/07/29 11:23:49;;;;;;;2.10;1.90;;;;;;;24.88;71.34;98600.81;7230563;40;20305;31
2023/07/29 11:29:25;;;;;;;4.24;1.88;;;;;;;25.08;70.67;98589.78;7267579;39;20437;31
2023/07/29 11:34:57;;;;;;;1.85;1.70;;;;;;;24.87;69.26;98602.72;7255794;40;20266;31
2023/07/29 11:40:33;;;;;;;2.05;1.75;;;;;;;24.85;69.02;98585.59;7265917;40;20272;31
2023/07/29 11:46:08;;;;;;;2.95;1.60;;;;;;;24.80;69.57;98591.09;7238347;40;20242;31
2023/07/29 11:51:43;;;;;;;1.98;1.73;;;;;;;25.07;67.14;98577.09;7209460;40;20269;31
2023/07/29 11:57:20;;;;;;;1.70;1.60;;;;;;;25.47;66.37;98560.50;7154291;40;20247;31
2023/07/29 12:02:55;;;;;;;3.60;2.12;;;;;;;25.61;64.10;98584.81;7165539;40;20246;31
2023/07/29 12:08:30;;;;;;;1.83;1.62;;;;;;;25.68;61.82;98574.28;7206154;40;20255;31
2023/07/29 12:14:04;;;;;;;1.90;1.70;;;;;;;25.68;60.07;98561.31;7215890;40;20253;31
2023/07/29 12:19:25;;;;;;;1.50;1.40;;;;;;;25.76;59.84;98562.66;7203266;40;20328;31
2023/07/29 12:24:57;;;;;;;2.00;1.60;;;;;;;25.70;60.05;98567.41;7214014;40;20632;31
2023/07/29 12:30:33;;;;;;;4.90;1.60;;;;;;;25.57;58.25;98570.75;7157653;40;20268;31
2023/07/29 12:36:08;;;;;;;2.28;1.70;;;;;;;25.74;58.41;98579.53;7204291;40;20266;31
2023/07/29 12:41:28;;;;;;;3.05;1.92;;;;;;;25.90;57.96;98578.38;7205470;40;20250;31
2023/07/29 12:47:04;;;;;;;2.08;1.70;;;;;;;26.07;56.87;98589.09;7221242;40;20261;31
2023/07/29 12:52:24;;;;;;;1.70;1.50;;;;;;;25.89;58.08;98590.53;7194417;40;20282;31
2023/07/29 12:57:44;;;;;;;1.85;1.55;;;;;;;25.98;58.38;98585.25;7246696;40;20264;31
2023/07/29 13:03:20;;;;;;;2.25;1.70;;;;;;;26.07;57.44;98574.44;7316764;39;20268;31
2023/07/29 13:08:40;;;;;;;1.95;1.70;;;;;;;26.16;57.01;98573.56;7285449;40;20528;31
2023/07/29 13:14:16;;;;;;;1.87;1.30;;;;;;;26.12;58.48;98553.16;7316750;39;20303;31
2023/07/29 13:19:52;;;;;;;2.28;1.73;;;;;;;26.13;57.83;98554.81;7176214;40;20274;31
2023/07/29 13:25:27;;;;;;;1.58;1.48;;;;;;;25.65;59.42;98558.28;7145461;40;20328;31
2023/07/29 13:30:44;;;;;;;2.10;1.88;;;;;;;26.06;59.00;98557.06;7174747;40;20282;31
2023/07/29 13:41:22;;;;;;;2.42;1.80;;;;;;;26.70;57.61;98537.66;7218242;40;20268;31
2023/07/29 13:51:43;;;;;;;3.10;1.73;;;;;;;26.57;58.54;98549.34;7274362;40;21516;31
2023/07/29 14:02:18;;;;;;;2.36;1.68;;;;;;;26.87;57.35;98560.22;7256528;40;20298;31
2023/07/29 14:12:42;;;;;;;2.12;1.68;;;;;;;26.67;57.05;98554.00;7292540;39;20377;31
2023/07/29 14:18:15;;;;;;;4.32;1.70;;;;;;;26.58;56.80;98561.25;7293694;39;21463;31
2023/07/29 14:28:51;;;;;;;2.22;1.80;;;;;;;26.58;57.15;98552.94;7311765;39;20294;31
2023/07/29 14:39:31;;;;;;;3.55;1.83;;;;;;;26.69;56.70;98543.47;7301489;39;20262;31
2023/07/29 14:50:07;;;;;;;2.20;1.80;;;;;;;26.70;55.26;98548.72;7269760;39;21134;31
2023/07/29 15:00:44;;;;;;;2.92;1.82;;;;;;;26.65;54.69;98543.22;7241746;40;20257;31
2023/07/29 15:11:08;;;;;;;2.47;1.70;;;;;;;26.54;56.75;98552.69;7253042;40;20281;31
2023/07/29 15:16:44;;;;;;;2.78;2.05;;;;;;;26.36;56.33;98553.34;7274100;40;22344;31
2023/07/29 15:27:18;;;;;;;2.45;1.95;;;;;;;26.53;57.10;98556.56;7216225;40;21233;31
2023/07/29 15:37:56;;;;;;;2.85;1.75;;;;;;;25.94;58.31;98538.03;7268689;39;20276;31
2023/07/29 15:48:32;;;;;;;3.42;1.95;;;;;;;25.63;59.51;98554.97;7318278;40;21176;31
2023/07/29 15:59:09;;;;;;;4.40;1.95;;;;;;;25.80;60.05;98536.97;7241400;40;21158;31
2023/07/29 16:09:45;;;;;;;2.80;1.80;;;;;;;26.07;59.58;98528.31;7252454;40;20811;31
2023/07/29 16:15:16;;;;;;;4.47;2.20;;;;;;;26.18;60.71;98538.22;7108554;39;20362;31
2023/07/29 16:20:37;;;;;;;4.22;2.08;;;;;;;25.81;63.00;98524.81;7303094;39;20264;31
2023/07/29 16:26:12;;;;;;;2.80;2.17;;;;;;;25.38;65.64;98545.63;7268336;39;20276;31
2023/07/29 16:31:47;;;;;;;3.12;2.00;;;;;;;25.07;67.31;98553.09;7266329;39;20281;31
2023/07/29 16:42:23;;;;;;;5.37;2.30;;;;;;;24.77;68.33;98561.31;7250528;39;21729;31
2023/07/29 16:53:00;;;;;;;2.80;2.17;;;;;;;24.71;69.45;98584.47;7292284;39;21338;31
2023/07/29 16:58:21;;;;;;;3.35;2.00;;;;;;;24.65;68.93;98588.31;7254757;40;20254;31
2023/07/29 17:03:56;;;;;;;2.83;2.20;;;;;;;24.63;68.87;98580.31;7237962;40;20432;31
2023/07/29 17:09:32;;;;;;;2.55;2.00;;;;;;;24.71;68.29;98573.44;7215247;40;20284;31
2023/07/29 17:14:53;;;;;;;3.60;2.17;;;;;;;24.76;68.35;98573.44;7244016;40;20257;31
2023/07/29 17:20:14;;;;;;;2.67;1.87;;;;;;;24.77;67.25;98561.31;7204942;40;20358;31
2023/07/29 17:25:48;;;;;;;2.70;1.90;;;;;;;24.74;67.44;98561.88;7240733;39;20342;31
2023/07/29 17:31:06;;;;;;;2.65;1.90;;;;;;;24.76;65.81;98570.69;7283728;39;20252;31
2023/07/29 17:36:40;;;;;;;2.00;1.80;;;;;;;24.64;66.65;98578.41;7274802;40;20257;31
2023/07/29 17:42:15;;;;;;;3.15;2.00;;;;;;;24.58;66.09;98573.97;7236973;40;20334;31
2023/07/29 17:47:50;;;;;;;3.12;1.95;;;;;;;24.56;66.83;98562.41;7174916;40;20297;31
2023/07/29 17:53:25;;;;;;;2.90;2.00;;;;;;;24.53;67.03;98554.66;7159886;40;20254;31
2023/07/29 17:59:01;;;;;;;4.20;2.17;;;;;;;24.43;66.52;98557.41;7133093;40;20341;31
2023/07/29 18:04:18;;;;;;;3.03;2.17;;;;;;;24.46;67.12;98552.19;7136867;40;20278;31
2023/07/29 18:09:53;;;;;;;4.10;1.87;;;;;;;24.44;66.62;98568.13;7145067;40;20431;31
2023/07/29 18:15:24;;;;;;;4.25;2.10;;;;;;;24.41;66.69;98573.38;7200316;40;21299;31
2023/07/29 18:20:56;;;;;;;2.83;2.50;;;;;;;24.32;67.60;98578.56;7263816;39;20353;31
2023/07/29 18:26:13;;;;;;;2.20;2.00;;;;;;;24.32;68.41;98580.50;7266084;40;20281;31
2023/07/29 18:36:48;;;;;;;2.30;1.90;;;;;;;24.06;70.06;98566.63;7232704;40;21105;31
2023/07/29 18:47:09;;;;;;;3.72;2.12;;;;;;;24.05;68.61;98564.94;7244254;40;21470;31
2023/07/29 18:52:44;;;;;;;2.50;2.20;;;;;;;23.98;68.80;98556.12;7334620;39;20275;31
2023/07/29 18:58:19;;;;;;;2.90;2.20;;;;;;;23.92;70.46;98562.69;7282638;39;20268;31
2023/07/29 19:03:54;;;;;;;3.46;2.10;;;;;;;23.81;70.08;98558.25;7198557;40;20563;31
2023/07/29 19:09:30;;;;;;;3.62;2.42;;;;;;;23.68;71.14;98572.50;7234248;40;20246;31
2023/07/29 19:14:50;;;;;;;2.80;2.58;;;;;;;23.53;71.83;98575.13;7223053;40;20246;31
2023/07/29 19:20:11;;;;;;;5.30;2.40;;;;;;;23.47;72.39;98577.03;7179698;40;20270;31
2023/07/29 19:25:48;;;;;;;3.75;2.20;;;;;;;23.41;71.69;98591.81;7229921;40;20442;31
2023/07/29 19:31:23;;;;;;;2.93;2.50;;;;;;;23.32;72.52;98593.41;7227867;40;20246;31
2023/07/29 19:36:58;;;;;;;3.30;2.30;;;;;;;23.22;73.08;98605.16;7191825;40;21127;31
2023/07/29 19:42:34;;;;;;;2.55;2.30;;;;;;;23.27;73.42;98596.09;7233976;40;20260;31
2023/07/29 19:48:09;;;;;;;2.50;2.08;;;;;;;23.28;73.42;98606.84;7235538;40;20521;31
2023/07/29 19:53:44;;;;;;;2.87;2.45;;;;;;;23.31;72.26;98609.06;7213333;40;20238;31
2023/07/29 20:04:24;;;;;;;3.83;3.50;;;;;;;23.20;76.65;98601.84;7199411;40;20414;31
2023/07/29 20:15:02;;;;;;;2.83;2.53;;;;;;;23.08;76.00;98631.41;7266536;40;21345;31
2023/07/29 20:20:37;;;;;;;3.50;2.60;;;;;;;23.06;76.26;98628.09;7316631;40;20268;31
2023/07/29 20:25:57;;;;;;;5.25;2.90;;;;;;;23.05;75.64;98623.69;7235958;40;20246;31
2023/07/29 20:31:17;;;;;;;5.05;2.75;;;;;;;23.01;75.98;98606.06;7238142;40;20455;31
2023/07/29 20:36:53;;;;;;;3.75;2.80;;;;;;;22.99;75.79;98610.19;7227537;40;20258;31
2023/07/29 20:42:13;;;;;;;3.12;2.65;;;;;;;22.90;77.55;98629.06;7206811;40;20245;31
2023/07/29 20:47:48;;;;;;;3.12;2.50;;;;;;;22.87;77.74;98651.56;7277444;40;20318;31
2023/07/29 20:53:24;;;;;;;3.03;2.62;;;;;;;22.88;77.58;98650.47;7224744;40;20346;31
2023/07/29 20:58:59;;;;;;;3.65;2.72;;;;;;;22.75;77.15;98653.63;7208347;40;20270;31
2023/07/29 21:04:19;;;;;;;3.87;2.37;;;;;;;22.61;77.58;98666.91;7178995;40;20317;31
2023/07/29 21:09:56;;;;;;;4.55;2.85;;;;;;;22.52;78.69;98665.69;7211911;40;20382;31
2023/07/29 21:15:16;;;;;;;3.66;2.70;;;;;;;22.41;79.14;98680.41;7254893;40;20458;31
2023/07/29 21:20:35;;;;;;;5.05;3.30;;;;;;;22.42;80.11;98709.53;7233070;40;20249;31
2023/07/29 21:26:12;;;;;;;6.50;3.47;;;;;;;22.33;81.37;98695.44;7226831;40;20340;31
2023/07/29 21:31:46;;;;;;;6.15;3.25;;;;;;;22.25;82.11;98698.59;7254954;40;20253;31
2023/07/29 21:37:21;;;;;;;3.65;2.20;;;;;;;22.09;81.81;98680.25;7277384;39;20326;31
2023/07/29 21:42:57;;;;;;;1.94;1.52;;;;;;;22.02;80.58;98690.59;7215052;40;20273;31
2023/07/29 21:48:32;;;;;;;3.55;1.40;;;;;;;21.84;81.24;98699.06;7174806;40;20270;31
2023/07/29 21:54:04;;;;;;;2.83;1.60;;;;;;;21.86;81.75;98694.16;7174967;40;20275;31
2023/07/29 22:04:41;;;;;;;2.35;1.77;;;;;;;21.86;82.54;98678.53;7186418;40;21186;31
2023/07/29 22:15:19;;;;;;;4.03;1.50;;;;;;;21.90;81.55;98663.22;7250133;39;21142;31
2023/07/29 22:25:59;;;;;;;1.52;1.25;;;;;;;21.84;81.75;98641.44;7224855;40;20265;31
2023/07/29 22:36:35;;;;;;;1.48;1.28;;;;;;;21.84;82.02;98663.41;7254294;40;21060;31
2023/07/29 22:42:08;;;;;;;2.35;1.60;;;;;;;21.75;82.45;98684.94;7193215;40;20262;31
2023/07/29 22:47:43;;;;;;;2.42;1.60;;;;;;;21.60;83.38;98684.69;7175521;40;20259;31
2023/07/29 22:53:04;;;;;;;4.60;1.50;;;;;;;21.56;83.69;98676.16;7117716;41;20319;31
2023/07/29 22:58:36;;;;;;;3.78;1.92;;;;;;;21.64;83.17;98691.34;7154012;40;20236;31
2023/07/29 23:03:54;;;;;;;2.62;1.80;;;;;;;21.58;83.29;98700.59;7243474;40;20249;31
2023/07/29 23:09:14;;;;;;;2.00;1.67;;;;;;;21.48;83.33;98693.03;7204350;40;20265;31
2023/07/29 23:14:49;;;;;;;1.90;1.70;;;;;;;21.36;84.71;98692.28;7274542;40;20345;31
2023/07/29 23:20:25;;;;;;;2.47;1.77;;;;;;;21.35;83.50;98704.31;7050614;40;20233;31
2023/07/29 23:25:43;;;;;;;4.15;2.00;;;;;;;21.29;84.49;98688.84;7197568;40;20292;31
2023/07/29 23:31:18;;;;;;;2.73;2.07;;;;;;;21.28;84.46;98689.91;7199911;40;20241;31
2023/07/29 23:36:36;;;;;;;2.12;1.73;;;;;;;21.28;83.93;98678.94;7232693;40;20479;31
2023/07/29 23:41:53;;;;;;;3.92;2.35;;;;;;;21.22;84.06;98677.22;7179720;40;20285;31
2023/07/29 23:47:28;;;;;;;2.10;1.65;;;;;;;21.08;84.87;98687.63;7155248;40;20250;31
2023/07/29 23:57:53;;;;;;;2.00;1.70;;;;;;;21.09;84.38;98680.25;7203874;40;20350;31
